createdAt,value
2019-05-25T00:00:18.560Z,75.37
2019-05-25T00:01:22.464Z,75.16
2019-05-25T00:02:24.905Z,75.98
2019-05-25T00:03:26.962Z,75.13
2019-05-25T00:04:30.684Z,75.57
2019-05-25T00:05:33.280Z,75.01
2019-05-25T00:06:36.138Z,75.18
2019-05-25T00:07:39.727Z,75.24
2019-05-25T00:08:43.547Z,75.67
2019-05-25T00:09:48.566Z,75.12
2019-05-25T00:10:52.764Z,74.79
2019-05-25T00:11:55.440Z,74.71
2019-05-25T00:12:58.588Z,73.70
2019-05-25T00:14:01.174Z,73.83
2019-05-25T00:15:06.845Z,74.57
2019-05-25T00:16:08.868Z,74.00
2019-05-25T00:17:11.462Z,74.20
2019-05-25T00:18:14.021Z,73.83
2019-05-25T00:19:16.508Z,74.90
2019-05-25T00:20:19.232Z,74.46
2019-05-25T00:21:21.676Z,74.78
2019-05-25T00:22:24.451Z,74.58
2019-05-25T00:23:27.491Z,74.26
2019-05-25T00:24:30.220Z,73.97
2019-05-25T00:25:32.818Z,73.97
2019-05-25T00:26:35.380Z,74.43
2019-05-25T00:27:38.625Z,74.52
2019-05-25T00:28:40.434Z,73.58
2019-05-25T00:29:43.456Z,73.53
2019-05-25T00:30:46.146Z,73.25
2019-05-25T00:31:48.856Z,74.30
2019-05-25T00:32:51.806Z,73.15
2019-05-25T00:33:54.624Z,73.61
2019-05-25T00:34:59.239Z,73.77
2019-05-25T00:36:01.837Z,73.48
2019-05-25T00:37:04.167Z,73.04
2019-05-25T00:38:06.565Z,73.20
2019-05-25T00:39:09.300Z,73.63
2019-05-25T00:40:12.069Z,73.17
2019-05-25T00:41:14.823Z,73.32
2019-05-25T00:42:16.816Z,72.37
2019-05-25T00:43:19.593Z,73.19
2019-05-25T00:44:22.403Z,72.97
2019-05-25T00:45:24.880Z,73.55
2019-05-25T00:46:27.072Z,72.60
2019-05-25T00:47:29.613Z,73.33
2019-05-25T00:48:31.889Z,72.45
2019-05-25T00:49:34.321Z,72.48
2019-05-25T00:50:37.313Z,72.31
2019-05-25T00:51:39.423Z,72.83
2019-05-25T00:52:41.728Z,73.09
2019-05-25T00:53:44.599Z,73.35
2019-05-25T00:54:46.391Z,72.87
2019-05-25T00:55:48.775Z,72.33
2019-05-25T00:56:51.765Z,72.22
2019-05-25T00:57:53.477Z,72.86
2019-05-25T00:58:58.149Z,72.26
2019-05-25T01:00:00.753Z,72.63
2019-05-25T01:01:04.539Z,72.20
2019-05-25T01:02:08.092Z,72.08
2019-05-25T01:03:10.992Z,72.20
2019-05-25T01:04:14.559Z,72.69
2019-05-25T01:05:17.119Z,72.43
2019-05-25T01:06:19.591Z,72.43
2019-05-25T01:07:22.251Z,72.40
2019-05-25T01:08:24.766Z,72.63
2019-05-25T01:09:26.902Z,72.94
2019-05-25T01:10:29.221Z,73.40
2019-05-25T01:11:31.645Z,72.89
2019-05-25T01:12:33.484Z,72.31
2019-05-25T01:13:35.925Z,72.61
2019-05-25T01:14:39.949Z,72.26
2019-05-25T01:15:42.534Z,72.19
2019-05-25T01:16:45.304Z,71.91
2019-05-25T01:17:47.866Z,72.08
2019-05-25T01:18:52.370Z,72.17
2019-05-25T01:19:54.731Z,72.22
2019-05-25T01:20:57.310Z,72.35
2019-05-25T01:21:59.936Z,72.98
2019-05-25T01:23:02.976Z,72.58
2019-05-25T01:24:05.530Z,72.76
2019-05-25T01:25:08.126Z,72.41
2019-05-25T01:26:11.283Z,72.45
2019-05-25T01:27:13.900Z,72.75
2019-05-25T01:28:15.807Z,72.95
2019-05-25T01:29:18.100Z,72.98
2019-05-25T01:30:20.603Z,72.84
2019-05-25T01:31:23.053Z,72.49
2019-05-25T01:32:26.088Z,72.66
2019-05-25T01:33:28.744Z,73.11
2019-05-25T01:34:31.637Z,74.05
2019-05-25T01:35:34.146Z,74.04
2019-05-25T01:36:36.574Z,74.49
2019-05-25T01:37:39.177Z,74.69
2019-05-25T01:38:41.883Z,75.27
2019-05-25T01:39:44.907Z,76.03
2019-05-25T01:40:47.255Z,76.24
2019-05-25T01:41:49.762Z,76.80
2019-05-25T01:42:51.837Z,76.65
2019-05-25T01:43:54.454Z,76.92
2019-05-25T01:44:57.254Z,76.12
2019-05-25T01:45:59.655Z,77.42
2019-05-25T01:47:02.444Z,77.13
2019-05-25T01:48:06.069Z,76.67
2019-05-25T01:49:08.665Z,76.96
2019-05-25T01:50:11.833Z,76.32
2019-05-25T01:51:14.663Z,76.26
2019-05-25T01:52:16.733Z,76.90
2019-05-25T01:53:19.409Z,76.59
2019-05-25T01:54:22.309Z,75.92
2019-05-25T01:55:24.895Z,75.73
2019-05-25T01:56:27.125Z,75.54
2019-05-25T01:57:29.409Z,75.56
2019-05-25T01:58:31.937Z,74.78
2019-05-25T01:59:34.732Z,74.60
2019-05-25T02:00:38.857Z,74.39
2019-05-25T02:01:41.419Z,74.45
2019-05-25T02:02:44.351Z,74.15
2019-05-25T02:03:46.202Z,75.23
2019-05-25T02:04:49.590Z,75.12
2019-05-25T02:05:52.150Z,75.30
2019-05-25T02:06:53.830Z,75.64
2019-05-25T02:07:56.245Z,76.17
2019-05-25T02:08:58.894Z,76.76
2019-05-25T02:10:00.939Z,77.03
2019-05-25T02:11:04.621Z,77.14
2019-05-25T02:12:07.214Z,76.78
2019-05-25T02:13:09.895Z,76.64
2019-05-25T02:14:13.138Z,75.36
2019-05-25T02:15:15.875Z,74.94
2019-05-25T02:16:18.423Z,74.37
2019-05-25T02:17:22.178Z,73.31
2019-05-25T02:18:24.661Z,72.80
2019-05-25T02:19:27.382Z,72.90
2019-05-25T02:20:30.496Z,73.24
2019-05-25T02:21:32.847Z,72.60
2019-05-25T02:22:34.534Z,73.48
2019-05-25T02:23:37.128Z,72.52
2019-05-25T02:24:39.925Z,73.01
2019-05-25T02:25:42.196Z,73.07
2019-05-25T02:26:44.754Z,73.05
2019-05-25T02:27:46.540Z,72.87
2019-05-25T02:28:49.261Z,73.53
2019-05-25T02:29:51.829Z,73.57
2019-05-25T02:30:54.202Z,73.41
2019-05-25T02:31:57.121Z,73.39
2019-05-25T02:33:01.683Z,73.54
2019-05-25T02:34:06.169Z,73.70
2019-05-25T02:35:16.511Z,73.01
2019-05-25T02:36:20.729Z,73.17
2019-05-25T02:37:23.166Z,73.40
2019-05-25T02:38:26.110Z,72.80
2019-05-25T02:39:27.806Z,72.87
2019-05-25T02:40:30.801Z,72.63
2019-05-25T02:41:33.076Z,72.96
2019-05-25T02:42:35.282Z,72.98
2019-05-25T02:43:37.825Z,73.15
2019-05-25T02:44:40.486Z,73.51
2019-05-25T02:45:42.910Z,73.96
2019-05-25T02:46:45.383Z,73.39
2019-05-25T02:47:48.802Z,74.04
2019-05-25T02:48:51.710Z,73.94
2019-05-25T02:49:54.175Z,73.06
2019-05-25T02:50:57.309Z,73.18
2019-05-25T02:52:00.741Z,73.63
2019-05-25T02:53:03.439Z,73.53
2019-05-25T02:54:07.653Z,73.12
2019-05-25T02:55:10.884Z,73.20
2019-05-25T02:56:14.079Z,72.79
2019-05-25T02:57:16.434Z,72.70
2019-05-25T02:58:19.280Z,72.63
2019-05-25T02:59:23.193Z,73.30
2019-05-25T03:00:31.001Z,73.28
2019-05-25T03:01:34.007Z,73.03
2019-05-25T03:02:36.627Z,73.42
2019-05-25T03:03:38.702Z,72.62
2019-05-25T03:04:41.070Z,73.13
2019-05-25T03:05:45.078Z,72.84
2019-05-25T03:06:48.025Z,72.94
2019-05-25T03:07:51.069Z,72.86
2019-05-25T03:08:55.747Z,72.56
2019-05-25T03:09:59.748Z,72.62
2019-05-25T03:11:03.140Z,73.21
2019-05-25T03:12:06.551Z,73.67
2019-05-25T03:13:08.803Z,73.96
2019-05-25T03:14:11.107Z,74.43
2019-05-25T03:15:14.781Z,74.09
2019-05-25T03:16:17.785Z,75.35
2019-05-25T03:17:22.285Z,75.15
2019-05-25T03:18:24.717Z,75.43
2019-05-25T03:19:27.625Z,75.04
2019-05-25T03:20:30.397Z,75.48
2019-05-25T03:21:32.845Z,75.18
2019-05-25T03:22:35.307Z,75.26
2019-05-25T03:23:37.567Z,75.26
2019-05-25T03:24:39.821Z,75.94
2019-05-25T03:25:49.515Z,76.37
2019-05-25T03:26:46.787Z,75.43
2019-05-25T03:27:49.786Z,74.68
2019-05-25T03:28:52.635Z,74.56
2019-05-25T03:29:54.983Z,74.44
2019-05-25T03:30:57.019Z,74.18
2019-05-25T03:31:59.466Z,74.32
2019-05-25T03:33:02.815Z,73.46
2019-05-25T03:34:05.501Z,74.06
2019-05-25T03:35:08.059Z,73.52
2019-05-25T03:36:11.025Z,73.52
2019-05-25T03:37:13.238Z,74.04
2019-05-25T03:38:15.823Z,72.53
2019-05-25T03:39:18.336Z,72.52
2019-05-25T03:40:20.311Z,72.73
2019-05-25T03:41:23.031Z,72.78
2019-05-25T03:42:25.288Z,73.09
2019-05-25T03:43:27.698Z,73.32
2019-05-25T03:44:30.608Z,73.23
2019-05-25T03:45:33.504Z,72.19
2019-05-25T03:46:37.190Z,73.24
2019-05-25T03:47:39.734Z,71.04
2019-05-25T03:48:42.118Z,71.08
2019-05-25T03:49:46.180Z,71.20
2019-05-25T03:50:48.634Z,71.31
2019-05-25T03:51:50.873Z,71.11
2019-05-25T03:52:53.882Z,71.57
2019-05-25T03:53:56.626Z,71.82
2019-05-25T03:54:59.624Z,71.00
2019-05-25T03:56:05.731Z,70.88
2019-05-25T03:57:07.481Z,71.16
2019-05-25T03:58:09.495Z,70.89
2019-05-25T03:59:12.306Z,70.41
2019-05-25T04:00:19.588Z,70.49
2019-05-25T04:01:22.323Z,70.98
2019-05-25T04:02:24.989Z,70.36
2019-05-25T04:03:27.648Z,71.03
2019-05-25T04:04:30.237Z,71.04
2019-05-25T04:05:33.400Z,71.54
2019-05-25T04:06:35.793Z,71.27
2019-05-25T04:07:38.306Z,72.75
2019-05-25T04:08:40.579Z,73.23
2019-05-25T04:09:42.297Z,73.22
2019-05-25T04:10:44.586Z,73.40
2019-05-25T04:11:47.729Z,72.18
2019-05-25T04:12:49.758Z,72.21
2019-05-25T04:13:52.412Z,71.48
2019-05-25T04:14:56.187Z,71.57
2019-05-25T04:16:00.349Z,70.42
2019-05-25T04:17:03.175Z,71.05
2019-05-25T04:18:06.167Z,70.06
2019-05-25T04:19:08.359Z,69.67
2019-05-25T04:20:10.951Z,70.16
2019-05-25T04:21:14.415Z,69.66
2019-05-25T04:22:16.629Z,69.72
2019-05-25T04:23:18.981Z,69.81
2019-05-25T04:24:22.619Z,69.26
2019-05-25T04:25:24.307Z,68.68
2019-05-25T04:26:27.661Z,68.72
2019-05-25T04:27:29.536Z,68.99
2019-05-25T04:28:31.565Z,69.24
2019-05-25T04:29:34.072Z,69.25
2019-05-25T04:30:36.444Z,69.32
2019-05-25T04:31:38.799Z,69.54
2019-05-25T04:32:41.185Z,69.66
2019-05-25T04:33:43.201Z,70.59
2019-05-25T04:34:45.756Z,69.86
2019-05-25T04:35:48.808Z,69.19
2019-05-25T04:36:51.948Z,70.34
2019-05-25T04:37:54.680Z,69.58
2019-05-25T04:38:57.489Z,69.40
2019-05-25T04:40:05.386Z,69.15
2019-05-25T04:41:08.234Z,69.09
2019-05-25T04:42:11.020Z,68.99
2019-05-25T04:43:13.222Z,68.67
2019-05-25T04:44:17.682Z,69.22
2019-05-25T04:45:20.087Z,68.77
2019-05-25T04:46:22.615Z,69.35
2019-05-25T04:47:27.118Z,69.69
2019-05-25T04:48:28.930Z,69.44
2019-05-25T04:49:31.359Z,68.68
2019-05-25T04:50:33.821Z,69.34
2019-05-25T04:51:36.122Z,68.53
2019-05-25T04:52:41.079Z,68.76
2019-05-25T04:53:43.222Z,68.67
2019-05-25T04:54:46.216Z,68.67
2019-05-25T04:55:49.080Z,68.37
2019-05-25T04:56:51.492Z,68.57
2019-05-25T04:57:55.302Z,68.27
2019-05-25T04:58:58.072Z,68.07
2019-05-25T05:00:00.882Z,67.51
2019-05-25T05:01:02.903Z,67.00
2019-05-25T05:02:06.135Z,66.67
2019-05-25T05:03:08.864Z,67.44
2019-05-25T05:04:10.623Z,67.15
2019-05-25T05:05:14.057Z,67.59
2019-05-25T05:06:16.624Z,68.16
2019-05-25T05:07:19.694Z,69.23
2019-05-25T05:08:25.086Z,68.96
2019-05-25T05:09:26.806Z,69.32
2019-05-25T05:10:29.330Z,69.15
2019-05-25T05:11:31.834Z,68.74
2019-05-25T05:12:34.999Z,67.45
2019-05-25T05:13:37.365Z,68.00
2019-05-25T05:14:41.088Z,67.71
2019-05-25T05:15:43.362Z,67.27
2019-05-25T05:16:45.726Z,67.58
2019-05-25T05:17:48.708Z,67.86
2019-05-25T05:18:50.541Z,66.97
2019-05-25T05:19:52.815Z,67.64
2019-05-25T05:20:55.405Z,67.07
2019-05-25T05:21:57.854Z,67.52
2019-05-25T05:23:02.189Z,67.86
2019-05-25T05:24:04.833Z,68.70
2019-05-25T05:25:08.626Z,67.43
2019-05-25T05:26:12.109Z,67.64
2019-05-25T05:27:15.940Z,67.37
2019-05-25T05:28:18.367Z,67.82
2019-05-25T05:29:20.641Z,67.72
2019-05-25T05:30:33.377Z,67.63
2019-05-25T05:31:35.907Z,67.65
2019-05-25T05:32:40.105Z,67.55
2019-05-25T05:33:42.573Z,67.21
2019-05-25T05:34:45.805Z,67.09
2019-05-25T05:35:49.100Z,67.17
2019-05-25T05:36:52.229Z,67.14
2019-05-25T05:37:57.241Z,66.40
2019-05-25T05:39:00.379Z,66.72
2019-05-25T05:40:06.962Z,66.66
2019-05-25T05:41:13.360Z,67.25
2019-05-25T05:42:17.398Z,66.39
2019-05-25T05:43:20.852Z,65.97
2019-05-25T05:44:25.342Z,65.13
2019-05-25T05:45:30.306Z,64.63
2019-05-25T05:46:36.128Z,63.77
2019-05-25T05:47:40.098Z,63.50
2019-05-25T05:48:46.102Z,63.00
2019-05-25T05:49:50.685Z,63.61
2019-05-25T05:50:57.189Z,63.32
2019-05-25T05:52:02.216Z,62.34
2019-05-25T05:53:05.052Z,63.72
2019-05-25T05:54:07.847Z,62.03
2019-05-25T05:55:11.474Z,62.08
2019-05-25T05:56:15.802Z,62.08
2019-05-25T05:57:18.492Z,62.15
2019-05-25T05:58:21.236Z,60.83
2019-05-25T05:59:23.564Z,60.83
2019-05-25T06:00:26.218Z,60.87
2019-05-25T06:01:28.191Z,58.62
2019-05-25T06:02:30.648Z,59.28
2019-05-25T06:03:32.352Z,58.13
2019-05-25T06:04:34.676Z,58.64
2019-05-25T06:05:39.210Z,57.70
2019-05-25T06:06:43.635Z,57.89
2019-05-25T06:07:46.009Z,57.29
2019-05-25T06:08:48.303Z,57.37
2019-05-25T06:09:50.680Z,57.36
2019-05-25T06:10:53.162Z,56.33
2019-05-25T06:11:55.827Z,57.08
2019-05-25T06:12:58.644Z,55.92
2019-05-25T06:14:03.504Z,56.25
2019-05-25T06:15:06.667Z,55.66
2019-05-25T06:16:11.143Z,55.51
2019-05-25T06:17:14.398Z,55.28
2019-05-25T06:18:16.227Z,55.44
2019-05-25T06:19:18.401Z,55.88
2019-05-25T06:20:23.302Z,56.00
2019-05-25T06:21:26.035Z,56.67
2019-05-25T06:22:28.488Z,55.55
2019-05-25T06:23:31.103Z,55.46
2019-05-25T06:24:33.451Z,55.67
2019-05-25T06:25:35.991Z,55.52
2019-05-25T06:26:38.247Z,54.99
2019-05-25T06:27:41.183Z,54.22
2019-05-25T06:28:44.092Z,53.95
2019-05-25T06:29:46.939Z,54.51
2019-05-25T06:30:49.338Z,53.86
2019-05-25T06:31:52.107Z,53.32
2019-05-25T06:32:54.763Z,53.63
2019-05-25T06:33:58.111Z,54.13
2019-05-25T06:35:00.965Z,54.12
2019-05-25T06:36:03.774Z,54.18
2019-05-25T06:37:06.258Z,54.11
2019-05-25T06:38:09.022Z,56.04
2019-05-25T06:39:12.530Z,53.35
2019-05-25T06:40:14.825Z,53.60
2019-05-25T06:41:18.209Z,53.23
2019-05-25T06:42:20.757Z,51.87
2019-05-25T06:43:22.709Z,52.29
2019-05-25T06:44:27.545Z,51.82
2019-05-25T06:45:31.043Z,52.12
2019-05-25T06:46:32.697Z,51.72
2019-05-25T06:47:36.643Z,51.28
2019-05-25T06:48:39.300Z,50.52
2019-05-25T06:49:40.983Z,51.38
2019-05-25T06:50:43.994Z,50.39
2019-05-25T06:51:47.387Z,50.67
2019-05-25T06:52:50.488Z,50.93
2019-05-25T06:53:52.751Z,50.47
2019-05-25T06:54:57.024Z,49.81
2019-05-25T06:55:59.776Z,49.42
2019-05-25T06:57:03.402Z,50.16
2019-05-25T06:58:05.576Z,49.17
2019-05-25T06:59:07.884Z,49.24
2019-05-25T07:00:11.100Z,49.60
2019-05-25T07:01:13.784Z,49.97
2019-05-25T07:02:16.197Z,49.98
2019-05-25T07:03:18.179Z,49.14
2019-05-25T07:04:20.933Z,49.30
2019-05-25T07:05:23.516Z,48.07
2019-05-25T07:06:28.745Z,47.82
2019-05-25T07:07:31.558Z,49.79
2019-05-25T07:08:34.411Z,48.29
2019-05-25T07:09:37.077Z,48.22
2019-05-25T07:10:40.037Z,48.43
2019-05-25T07:11:42.459Z,50.43
2019-05-25T07:12:44.945Z,48.20
2019-05-25T07:13:47.878Z,48.24
2019-05-25T07:14:50.315Z,48.04
2019-05-25T07:15:52.049Z,48.04
2019-05-25T07:16:54.648Z,46.47
2019-05-25T07:17:57.023Z,46.58
2019-05-25T07:18:59.147Z,46.45
2019-05-25T07:20:03.761Z,45.96
2019-05-25T07:21:06.554Z,48.00
2019-05-25T07:22:10.563Z,48.09
2019-05-25T07:23:14.219Z,49.47
2019-05-25T07:24:17.003Z,45.04
2019-05-25T07:25:20.245Z,46.50
2019-05-25T07:26:24.713Z,46.49
2019-05-25T07:27:27.265Z,46.44
2019-05-25T07:28:29.512Z,47.03
2019-05-25T07:29:32.447Z,47.40
2019-05-25T07:30:34.955Z,47.38
2019-05-25T07:31:38.673Z,47.62
2019-05-25T07:32:41.179Z,47.99
2019-05-25T07:33:44.462Z,48.20
2019-05-25T07:34:47.338Z,48.38
2019-05-25T07:35:49.970Z,47.60
2019-05-25T07:36:52.268Z,46.54
2019-05-25T07:37:55.281Z,46.70
2019-05-25T07:38:57.777Z,48.18
2019-05-25T07:40:00.764Z,47.58
2019-05-25T07:41:03.536Z,45.66
2019-05-25T07:42:06.450Z,48.11
2019-05-25T07:43:08.904Z,44.10
2019-05-25T07:44:11.408Z,47.27
2019-05-25T07:45:14.858Z,44.52
2019-05-25T07:46:17.375Z,45.40
2019-05-25T07:47:21.872Z,46.06
2019-05-25T07:48:25.676Z,45.18
2019-05-25T07:49:28.027Z,45.26
2019-05-25T07:50:32.210Z,45.89
2019-05-25T07:51:34.842Z,44.89
2019-05-25T07:52:37.335Z,44.50
2019-05-25T07:53:39.880Z,45.27
2019-05-25T07:54:41.596Z,43.45
2019-05-25T07:55:44.553Z,43.23
2019-05-25T07:56:47.545Z,43.02
2019-05-25T07:57:51.350Z,42.08
2019-05-25T07:58:54.102Z,41.87
2019-05-25T07:59:56.852Z,41.64
2019-05-25T08:00:58.791Z,41.69
2019-05-25T08:02:01.863Z,39.40
2019-05-25T08:03:04.682Z,41.58
2019-05-25T08:04:07.289Z,42.25
2019-05-25T08:05:09.923Z,41.45
2019-05-25T08:06:12.846Z,41.63
2019-05-25T08:07:14.818Z,41.67
2019-05-25T08:08:17.306Z,42.16
2019-05-25T08:09:23.736Z,42.20
2019-05-25T08:10:26.189Z,42.74
2019-05-25T08:11:28.668Z,43.03
2019-05-25T08:12:31.168Z,42.33
2019-05-25T08:13:33.984Z,42.17
2019-05-25T08:14:36.963Z,42.68
2019-05-25T08:15:39.544Z,42.84
2019-05-25T08:16:42.399Z,41.64
2019-05-25T08:17:44.933Z,42.41
2019-05-25T08:18:48.091Z,41.55
2019-05-25T08:19:50.632Z,41.38
2019-05-25T08:20:56.285Z,41.38
2019-05-25T08:21:59.185Z,41.79
2019-05-25T08:23:02.598Z,41.52
2019-05-25T08:24:06.599Z,41.91
2019-05-25T08:25:10.933Z,43.92
2019-05-25T08:26:13.654Z,42.28
2019-05-25T08:27:17.348Z,41.13
2019-05-25T08:28:32.348Z,39.79
2019-05-25T08:29:26.927Z,40.23
2019-05-25T08:30:31.390Z,40.41
2019-05-25T08:31:33.661Z,41.41
2019-05-25T08:32:37.645Z,41.55
2019-05-25T08:33:41.895Z,41.40
2019-05-25T08:34:44.359Z,41.12
2019-05-25T08:35:47.532Z,41.34
2019-05-25T08:36:50.634Z,38.83
2019-05-25T08:37:54.817Z,38.60
2019-05-25T08:38:57.143Z,38.70
2019-05-25T08:39:59.043Z,38.99
2019-05-25T08:41:01.611Z,38.54
2019-05-25T08:42:06.058Z,38.06
2019-05-25T08:43:09.550Z,41.15
2019-05-25T08:44:12.477Z,39.70
2019-05-25T08:45:15.941Z,40.60
2019-05-25T08:46:21.460Z,39.76
2019-05-25T08:47:24.301Z,39.62
2019-05-25T08:48:27.500Z,39.97
2019-05-25T08:49:29.395Z,40.17
2019-05-25T08:50:38.355Z,39.74
2019-05-25T08:51:36.930Z,40.13
2019-05-25T08:52:41.513Z,40.64
2019-05-25T08:53:46.570Z,39.50
2019-05-25T08:54:48.377Z,39.32
2019-05-25T08:55:51.129Z,39.55
2019-05-25T08:56:53.727Z,39.37
2019-05-25T08:57:56.714Z,38.94
2019-05-25T08:58:59.457Z,40.03
2019-05-25T09:00:04.516Z,40.61
2019-05-25T09:01:07.221Z,40.09
2019-05-25T09:02:11.177Z,39.82
2019-05-25T09:03:13.904Z,40.43
2019-05-25T09:04:16.286Z,40.38
2019-05-25T09:05:19.740Z,40.57
2019-05-25T09:06:24.387Z,38.90
2019-05-25T09:07:26.786Z,39.32
2019-05-25T09:08:29.112Z,38.62
2019-05-25T09:09:32.155Z,40.68
2019-05-25T09:10:34.856Z,38.67
2019-05-25T09:11:37.802Z,38.47
2019-05-25T09:12:43.176Z,38.60
2019-05-25T09:13:45.741Z,39.35
2019-05-25T09:14:48.379Z,38.76
2019-05-25T09:15:50.640Z,39.13
2019-05-25T09:16:53.110Z,39.68
2019-05-25T09:17:55.759Z,39.68
2019-05-25T09:18:58.207Z,40.47
2019-05-25T09:20:01.069Z,40.06
2019-05-25T09:21:03.884Z,40.74
2019-05-25T09:22:06.309Z,40.74
2019-05-25T09:23:09.506Z,41.70
2019-05-25T09:24:12.843Z,41.15
2019-05-25T09:25:16.031Z,40.15
2019-05-25T09:26:19.423Z,40.66
2019-05-25T09:27:21.818Z,41.18
2019-05-25T09:28:23.722Z,39.57
2019-05-25T09:29:26.294Z,41.00
2019-05-25T09:30:29.112Z,40.89
2019-05-25T09:31:30.993Z,40.27
2019-05-25T09:32:33.572Z,39.63
2019-05-25T09:33:37.001Z,39.80
2019-05-25T09:34:39.779Z,41.42
2019-05-25T09:35:43.456Z,40.07
2019-05-25T09:36:46.106Z,40.36
2019-05-25T09:37:49.407Z,40.28
2019-05-25T09:38:52.249Z,39.98
2019-05-25T09:39:55.229Z,40.71
2019-05-25T09:40:59.788Z,40.94
2019-05-25T09:42:02.887Z,41.90
2019-05-25T09:43:05.179Z,40.89
2019-05-25T09:44:10.488Z,41.48
2019-05-25T09:45:14.310Z,41.04
2019-05-25T09:46:16.880Z,40.68
2019-05-25T09:47:19.557Z,40.70
2019-05-25T09:48:22.707Z,40.95
2019-05-25T09:49:26.347Z,40.87
2019-05-25T09:50:29.062Z,41.36
2019-05-25T09:51:31.447Z,40.31
2019-05-25T09:52:35.527Z,39.99
2019-05-25T09:53:39.700Z,40.10
2019-05-25T09:54:41.760Z,40.44
2019-05-25T09:55:47.105Z,40.57
2019-05-25T09:56:50.781Z,39.75
2019-05-25T09:57:52.744Z,40.21
2019-05-25T09:58:55.145Z,40.92
2019-05-25T09:59:58.382Z,40.46
2019-05-25T10:01:00.371Z,39.42
2019-05-25T10:02:04.425Z,39.12
2019-05-25T10:03:07.538Z,39.30
2019-05-25T10:04:11.735Z,39.88
2019-05-25T10:05:14.546Z,39.01
2019-05-25T10:06:17.411Z,40.04
2019-05-25T10:07:19.289Z,40.77
2019-05-25T10:08:21.920Z,40.73
2019-05-25T10:09:24.504Z,40.53
2019-05-25T10:10:26.434Z,41.12
2019-05-25T10:11:30.012Z,40.27
2019-05-25T10:12:33.325Z,40.24
2019-05-25T10:13:36.492Z,39.81
2019-05-25T10:14:40.406Z,40.03
2019-05-25T10:15:42.554Z,40.63
2019-05-25T10:16:47.284Z,40.05
2019-05-25T10:17:50.512Z,39.65
2019-05-25T10:18:52.984Z,39.33
2019-05-25T10:19:55.693Z,39.78
2019-05-25T10:20:58.565Z,40.76
2019-05-25T10:22:01.291Z,40.20
2019-05-25T10:23:03.718Z,40.06
2019-05-25T10:24:06.286Z,39.35
2019-05-25T10:25:10.359Z,40.48
2019-05-25T10:26:13.393Z,41.09
2019-05-25T10:27:15.662Z,39.92
2019-05-25T10:28:19.144Z,39.76
2019-05-25T10:29:36.693Z,39.66
2019-05-25T10:30:28.814Z,39.15
2019-05-25T10:31:31.953Z,39.35
2019-05-25T10:32:35.361Z,38.94
2019-05-25T10:33:37.172Z,39.48
2019-05-25T10:34:44.118Z,41.00
2019-05-25T10:35:48.410Z,39.22
2019-05-25T10:36:50.214Z,39.25
2019-05-25T10:37:53.395Z,40.22
2019-05-25T10:38:55.662Z,38.76
2019-05-25T10:39:57.965Z,39.67
2019-05-25T10:41:00.466Z,40.13
2019-05-25T10:42:03.461Z,39.66
2019-05-25T10:43:06.758Z,39.45
2019-05-25T10:44:11.121Z,39.54
2019-05-25T10:45:14.767Z,39.22
2019-05-25T10:46:17.708Z,39.33
2019-05-25T10:47:20.606Z,39.18
2019-05-25T10:48:23.190Z,38.36
2019-05-25T10:49:29.395Z,38.45
2019-05-25T10:50:33.647Z,39.22
2019-05-25T10:51:36.120Z,40.73
2019-05-25T10:52:38.223Z,37.95
2019-05-25T10:53:40.921Z,38.00
2019-05-25T10:54:43.039Z,38.78
2019-05-25T10:55:45.469Z,36.82
2019-05-25T10:56:48.970Z,37.63
2019-05-25T10:57:54.285Z,37.63
2019-05-25T10:58:59.070Z,36.92
2019-05-25T11:00:03.916Z,36.98
2019-05-25T11:01:06.783Z,37.18
2019-05-25T11:02:11.730Z,37.27
2019-05-25T11:03:14.373Z,36.78
2019-05-25T11:04:16.343Z,37.26
2019-05-25T11:05:19.496Z,38.40
2019-05-25T11:06:22.169Z,38.04
2019-05-25T11:07:24.324Z,36.90
2019-05-25T11:08:26.883Z,37.00
2019-05-25T11:09:29.825Z,37.26
2019-05-25T11:10:32.494Z,37.21
2019-05-25T11:11:35.129Z,37.40
2019-05-25T11:12:41.366Z,36.29
2019-05-25T11:13:45.063Z,36.21
2019-05-25T11:14:47.690Z,37.03
2019-05-25T11:15:49.764Z,36.98
2019-05-25T11:16:52.253Z,36.90
2019-05-25T11:17:57.245Z,37.83
2019-05-25T11:18:59.696Z,37.97
2019-05-25T11:20:07.007Z,37.71
2019-05-25T11:21:09.925Z,36.73
2019-05-25T11:22:12.241Z,36.74
2019-05-25T11:23:14.630Z,35.97
2019-05-25T11:24:19.767Z,36.51
2019-05-25T11:25:22.221Z,35.84
2019-05-25T11:26:25.790Z,35.73
2019-05-25T11:27:28.372Z,36.27
2019-05-25T11:28:30.227Z,37.03
2019-05-25T11:29:32.948Z,36.53
2019-05-25T11:30:34.963Z,37.45
2019-05-25T11:31:37.706Z,36.10
2019-05-25T11:32:40.395Z,36.11
2019-05-25T11:33:42.188Z,36.82
2019-05-25T11:34:47.162Z,35.75
2019-05-25T11:35:50.052Z,36.24
2019-05-25T11:36:53.462Z,36.08
2019-05-25T11:37:56.375Z,36.30
2019-05-25T11:38:59.055Z,36.75
2019-05-25T11:40:07.463Z,35.89
2019-05-25T11:41:10.885Z,36.38
2019-05-25T11:42:14.305Z,36.99
2019-05-25T11:43:16.205Z,37.10
2019-05-25T11:44:19.367Z,37.03
2019-05-25T11:45:24.291Z,37.09
2019-05-25T11:46:26.782Z,36.78
2019-05-25T11:47:29.417Z,37.67
2019-05-25T11:48:31.311Z,37.27
2019-05-25T11:49:33.991Z,37.52
2019-05-25T11:50:36.459Z,37.88
2019-05-25T11:51:38.801Z,37.88
2019-05-25T11:52:41.488Z,38.20
2019-05-25T11:53:45.625Z,38.51
2019-05-25T11:54:47.373Z,37.69
2019-05-25T11:55:50.277Z,37.79
2019-05-25T11:56:53.185Z,37.31
2019-05-25T11:57:56.003Z,38.13
2019-05-25T11:59:01.761Z,36.65
2019-05-25T12:00:23.753Z,36.42
2019-05-25T12:01:15.957Z,36.69
2019-05-25T12:02:18.505Z,36.74
2019-05-25T12:03:21.012Z,37.54
2019-05-25T12:04:23.389Z,37.07
2019-05-25T12:05:25.903Z,37.02
2019-05-25T12:06:28.955Z,36.75
2019-05-25T12:07:31.511Z,36.50
2019-05-25T12:08:33.765Z,36.54
2019-05-25T12:09:36.465Z,36.61
2019-05-25T12:10:41.789Z,36.59
2019-05-25T12:11:44.607Z,36.63
2019-05-25T12:12:47.173Z,36.33
2019-05-25T12:13:50.638Z,37.33
2019-05-25T12:14:53.372Z,37.55
2019-05-25T12:15:55.802Z,37.83
2019-05-25T12:16:59.661Z,35.73
2019-05-25T12:18:02.801Z,35.56
2019-05-25T12:19:04.944Z,35.85
2019-05-25T12:20:08.440Z,36.64
2019-05-25T12:21:12.226Z,37.40
2019-05-25T12:22:14.553Z,37.72
2019-05-25T12:23:17.353Z,37.12
2019-05-25T12:24:21.200Z,36.57
2019-05-25T12:25:26.557Z,36.78
2019-05-25T12:26:29.120Z,37.60
2019-05-25T12:27:31.705Z,37.58
2019-05-25T12:28:34.204Z,37.85
2019-05-25T12:29:36.485Z,37.68
2019-05-25T12:30:41.191Z,35.95
2019-05-25T12:31:42.704Z,36.56
2019-05-25T12:32:45.263Z,36.25
2019-05-25T12:33:48.482Z,35.26
2019-05-25T12:34:50.970Z,35.79
2019-05-25T12:35:53.880Z,34.67
2019-05-25T12:36:56.977Z,35.32
2019-05-25T12:37:59.724Z,35.09
2019-05-25T12:39:04.658Z,35.12
2019-05-25T12:40:08.902Z,34.24
2019-05-25T12:41:11.949Z,34.76
2019-05-25T12:42:14.740Z,35.06
2019-05-25T12:43:17.847Z,35.39
2019-05-25T12:44:20.256Z,35.15
2019-05-25T12:45:22.846Z,35.55
2019-05-25T12:46:25.280Z,35.62
2019-05-25T12:47:28.690Z,36.15
2019-05-25T12:48:31.708Z,35.85
2019-05-25T12:49:49.461Z,35.71
2019-05-25T12:50:38.298Z,35.54
2019-05-25T12:51:42.241Z,36.73
2019-05-25T12:52:44.694Z,35.79
2019-05-25T12:53:47.585Z,36.69
2019-05-25T12:54:51.375Z,36.56
2019-05-25T12:55:55.055Z,35.21
2019-05-25T12:56:58.139Z,35.55
2019-05-25T12:58:03.340Z,35.40
2019-05-25T12:59:05.764Z,35.66
2019-05-25T13:00:15.826Z,36.28
2019-05-25T13:01:13.971Z,36.58
2019-05-25T13:02:16.264Z,36.66
2019-05-25T13:03:20.677Z,36.64
2019-05-25T13:04:24.281Z,36.92
2019-05-25T13:05:34.138Z,36.13
2019-05-25T13:06:32.219Z,36.29
2019-05-25T13:07:35.356Z,35.94
2019-05-25T13:08:38.006Z,36.33
2019-05-25T13:09:40.483Z,36.51
2019-05-25T13:10:43.298Z,36.06
2019-05-25T13:11:46.043Z,36.15
2019-05-25T13:12:48.553Z,36.18
2019-05-25T13:13:51.455Z,35.88
2019-05-25T13:14:54.281Z,35.48
2019-05-25T13:15:56.107Z,34.99
2019-05-25T13:16:59.933Z,35.78
2019-05-25T13:18:03.854Z,35.21
2019-05-25T13:19:06.259Z,36.44
2019-05-25T13:20:11.463Z,35.25
2019-05-25T13:21:14.347Z,35.34
2019-05-25T13:22:16.827Z,35.66
2019-05-25T13:23:19.199Z,35.11
2019-05-25T13:24:22.145Z,34.97
2019-05-25T13:25:24.735Z,35.29
2019-05-25T13:26:27.142Z,35.05
2019-05-25T13:27:31.265Z,34.77
2019-05-25T13:28:35.874Z,35.09
2019-05-25T13:29:38.910Z,35.17
2019-05-25T13:30:42.182Z,35.27
2019-05-25T13:31:44.601Z,34.99